sensor_id;sensor_type;location;lat;lon;timestamp;P1;durP1;ratioP1;P2;durP2;ratioP2
44925;SDS011;30662;51.210;7.656;2023-03-01T00:03:29;8.52;;;7.35;;
44925;SDS011;30662;51.210;7.656;2023-03-01T00:05:55;10.40;;;7.85;;
44925;SDS011;30662;51.210;7.656;2023-03-01T00:08:21;8.60;;;6.85;;
44925;SDS011;30662;51.210;7.656;2023-03-01T00:10:47;9.60;;;7.90;;
44925;SDS011;30662;51.210;7.656;2023-03-01T00:13:13;8.35;;;7.10;;
44925;SDS011;30662;51.210;7.656;2023-03-01T00:15:39;10.82;;;7.47;;
44925;SDS011;30662;51.210;7.656;2023-03-01T00:18:07;10.00;;;6.90;;
44925;SDS011;30662;51.210;7.656;2023-03-01T00:20:33;9.75;;;8.50;;
44925;SDS011;30662;51.210;7.656;2023-03-01T00:23:00;8.75;;;7.13;;
44925;SDS011;30662;51.210;7.656;2023-03-01T00:25:25;9.00;;;7.50;;
44925;SDS011;30662;51.210;7.656;2023-03-01T00:27:51;8.20;;;7.25;;
44925;SDS011;30662;51.210;7.656;2023-03-01T00:30:17;9.63;;;7.40;;
44925;SDS011;30662;51.210;7.656;2023-03-01T00:32:43;12.75;;;7.47;;
44925;SDS011;30662;51.210;7.656;2023-03-01T00:35:09;9.35;;;7.15;;
44925;SDS011;30662;51.210;7.656;2023-03-01T00:37:35;9.52;;;7.63;;
44925;SDS011;30662;51.210;7.656;2023-03-01T00:40:01;11.15;;;7.78;;
44925;SDS011;30662;51.210;7.656;2023-03-01T00:42:27;12.63;;;8.13;;
44925;SDS011;30662;51.210;7.656;2023-03-01T00:44:52;10.80;;;8.35;;
44925;SDS011;30662;51.210;7.656;2023-03-01T00:47:18;9.52;;;7.25;;
44925;SDS011;30662;51.210;7.656;2023-03-01T00:49:44;9.82;;;6.88;;
44925;SDS011;30662;51.210;7.656;2023-03-01T00:52:10;9.30;;;6.80;;
44925;SDS011;30662;51.210;7.656;2023-03-01T00:54:36;9.48;;;8.02;;
44925;SDS011;30662;51.210;7.656;2023-03-01T00:57:01;12.18;;;7.85;;
44925;SDS011;30662;51.210;7.656;2023-03-01T00:59:27;11.10;;;8.27;;
44925;SDS011;30662;51.210;7.656;2023-03-01T01:01:53;12.07;;;8.05;;
44925;SDS011;30662;51.210;7.656;2023-03-01T01:04:19;8.70;;;7.78;;
44925;SDS011;30662;51.210;7.656;2023-03-01T01:06:45;10.30;;;8.68;;
44925;SDS011;30662;51.210;7.656;2023-03-01T01:09:13;14.15;;;8.43;;
44925;SDS011;30662;51.210;7.656;2023-03-01T01:11:47;10.48;;;8.43;;
44925;SDS011;30662;51.210;7.656;2023-03-01T01:14:15;11.40;;;8.25;;
44925;SDS011;30662;51.210;7.656;2023-03-01T01:16:42;8.88;;;7.95;;
44925;SDS011;30662;51.210;7.656;2023-03-01T01:19:09;10.63;;;8.93;;
44925;SDS011;30662;51.210;7.656;2023-03-01T01:21:36;12.68;;;8.38;;
44925;SDS011;30662;51.210;7.656;2023-03-01T01:24:03;10.50;;;7.97;;
44925;SDS011;30662;51.210;7.656;2023-03-01T01:26:30;15.55;;;9.45;;
44925;SDS011;30662;51.210;7.656;2023-03-01T01:28:58;12.07;;;8.98;;
44925;SDS011;30662;51.210;7.656;2023-03-01T01:31:26;12.25;;;8.25;;
44925;SDS011;30662;51.210;7.656;2023-03-01T01:33:53;17.83;;;8.50;;
44925;SDS011;30662;51.210;7.656;2023-03-01T01:36:20;9.25;;;8.27;;
44925;SDS011;30662;51.210;7.656;2023-03-01T01:38:46;12.30;;;9.00;;
44925;SDS011;30662;51.210;7.656;2023-03-01T01:41:12;15.68;;;8.52;;
44925;SDS011;30662;51.210;7.656;2023-03-01T01:43:40;10.27;;;8.82;;
44925;SDS011;30662;51.210;7.656;2023-03-01T01:46:22;10.77;;;8.75;;
44925;SDS011;30662;51.210;7.656;2023-03-01T01:51:37;11.32;;;8.55;;
44925;SDS011;30662;51.210;7.656;2023-03-01T01:54:22;11.15;;;9.20;;
44925;SDS011;30662;51.210;7.656;2023-03-01T01:56:55;9.20;;;7.50;;
44925;SDS011;30662;51.210;7.656;2023-03-01T01:59:26;10.93;;;8.70;;
44925;SDS011;30662;51.210;7.656;2023-03-01T02:01:56;14.57;;;9.68;;
44925;SDS011;30662;51.210;7.656;2023-03-01T02:04:25;11.30;;;9.13;;
44925;SDS011;30662;51.210;7.656;2023-03-01T02:06:52;11.88;;;9.23;;
44925;SDS011;30662;51.210;7.656;2023-03-01T02:09:24;11.73;;;9.00;;
44925;SDS011;30662;51.210;7.656;2023-03-01T02:11:51;11.23;;;8.90;;
44925;SDS011;30662;51.210;7.656;2023-03-01T02:14:22;11.95;;;9.15;;
44925;SDS011;30662;51.210;7.656;2023-03-01T02:16:48;14.13;;;9.32;;
44925;SDS011;30662;51.210;7.656;2023-03-01T02:19:20;11.68;;;9.73;;
44925;SDS011;30662;51.210;7.656;2023-03-01T02:22:20;13.10;;;9.90;;
44925;SDS011;30662;51.210;7.656;2023-03-01T02:27:47;12.10;;;8.95;;
44925;SDS011;30662;51.210;7.656;2023-03-01T02:30:20;11.93;;;8.88;;
44925;SDS011;30662;51.210;7.656;2023-03-01T02:32:47;14.40;;;10.27;;
44925;SDS011;30662;51.210;7.656;2023-03-01T02:35:14;13.13;;;9.70;;
44925;SDS011;30662;51.210;7.656;2023-03-01T02:37:43;11.20;;;8.77;;
44925;SDS011;30662;51.210;7.656;2023-03-01T02:40:18;16.38;;;9.10;;
44925;SDS011;30662;51.210;7.656;2023-03-01T02:42:51;12.68;;;9.25;;
44925;SDS011;30662;51.210;7.656;2023-03-01T02:45:21;13.82;;;11.23;;
44925;SDS011;30662;51.210;7.656;2023-03-01T02:47:48;11.20;;;9.32;;
44925;SDS011;30662;51.210;7.656;2023-03-01T02:52:57;14.18;;;10.80;;
44925;SDS011;30662;51.210;7.656;2023-03-01T02:55:33;13.65;;;10.63;;
44925;SDS011;30662;51.210;7.656;2023-03-01T02:57:59;13.82;;;10.60;;
44925;SDS011;30662;51.210;7.656;2023-03-01T03:00:32;14.88;;;10.45;;
44925;SDS011;30662;51.210;7.656;2023-03-01T03:03:05;13.50;;;9.70;;
44925;SDS011;30662;51.210;7.656;2023-03-01T03:05:32;12.63;;;9.88;;
44925;SDS011;30662;51.210;7.656;2023-03-01T03:07:59;13.23;;;11.35;;
44925;SDS011;30662;51.210;7.656;2023-03-01T03:10:27;13.90;;;10.48;;
44925;SDS011;30662;51.210;7.656;2023-03-01T03:12:56;15.30;;;10.20;;
44925;SDS011;30662;51.210;7.656;2023-03-01T03:15:25;12.40;;;9.95;;
44925;SDS011;30662;51.210;7.656;2023-03-01T03:17:52;15.32;;;10.15;;
44925;SDS011;30662;51.210;7.656;2023-03-01T03:20:20;15.95;;;10.35;;
44925;SDS011;30662;51.210;7.656;2023-03-01T03:22:49;14.02;;;11.68;;
44925;SDS011;30662;51.210;7.656;2023-03-01T03:25:17;12.57;;;10.60;;
44925;SDS011;30662;51.210;7.656;2023-03-01T03:27:44;12.57;;;10.23;;
44925;SDS011;30662;51.210;7.656;2023-03-01T03:30:13;13.13;;;10.40;;
44925;SDS011;30662;51.210;7.656;2023-03-01T03:32:42;13.57;;;10.40;;
44925;SDS011;30662;51.210;7.656;2023-03-01T03:35:27;14.93;;;10.80;;
44925;SDS011;30662;51.210;7.656;2023-03-01T03:37:59;12.48;;;10.32;;
44925;SDS011;30662;51.210;7.656;2023-03-01T03:40:41;12.05;;;10.27;;
44925;SDS011;30662;51.210;7.656;2023-03-01T03:43:11;13.10;;;10.13;;
44925;SDS011;30662;51.210;7.656;2023-03-01T03:45:39;21.75;;;12.77;;
44925;SDS011;30662;51.210;7.656;2023-03-01T03:48:07;14.95;;;10.88;;
44925;SDS011;30662;51.210;7.656;2023-03-01T03:50:34;12.85;;;9.95;;
44925;SDS011;30662;51.210;7.656;2023-03-01T03:53:02;14.15;;;10.40;;
44925;SDS011;30662;51.210;7.656;2023-03-01T03:55:29;17.25;;;11.68;;
44925;SDS011;30662;51.210;7.656;2023-03-01T03:57:59;12.48;;;10.88;;
44925;SDS011;30662;51.210;7.656;2023-03-01T04:00:35;15.68;;;11.43;;
44925;SDS011;30662;51.210;7.656;2023-03-01T04:03:06;17.90;;;11.32;;
44925;SDS011;30662;51.210;7.656;2023-03-01T04:05:32;13.68;;;11.10;;
44925;SDS011;30662;51.210;7.656;2023-03-01T04:07:59;14.95;;;11.35;;
44925;SDS011;30662;51.210;7.656;2023-03-01T04:10:31;12.23;;;10.70;;
44925;SDS011;30662;51.210;7.656;2023-03-01T04:13:05;14.70;;;11.38;;
44925;SDS011;30662;51.210;7.656;2023-03-01T04:15:33;13.57;;;11.45;;
44925;SDS011;30662;51.210;7.656;2023-03-01T04:17:59;13.88;;;11.27;;
44925;SDS011;30662;51.210;7.656;2023-03-01T04:20:27;16.20;;;11.98;;
44925;SDS011;30662;51.210;7.656;2023-03-01T04:23:07;14.48;;;12.23;;
44925;SDS011;30662;51.210;7.656;2023-03-01T04:25:39;16.70;;;12.55;;
44925;SDS011;30662;51.210;7.656;2023-03-01T04:28:06;19.20;;;12.73;;
44925;SDS011;30662;51.210;7.656;2023-03-01T04:30:33;15.88;;;11.73;;
44925;SDS011;30662;51.210;7.656;2023-03-01T04:33:04;14.82;;;11.60;;
44925;SDS011;30662;51.210;7.656;2023-03-01T04:35:32;15.50;;;12.13;;
44925;SDS011;30662;51.210;7.656;2023-03-01T04:37:58;14.00;;;10.73;;
44925;SDS011;30662;51.210;7.656;2023-03-01T04:40:24;15.85;;;11.65;;
44925;SDS011;30662;51.210;7.656;2023-03-01T04:42:50;15.00;;;10.88;;
44925;SDS011;30662;51.210;7.656;2023-03-01T04:45:16;16.15;;;12.45;;
44925;SDS011;30662;51.210;7.656;2023-03-01T04:47:43;13.60;;;11.73;;
44925;SDS011;30662;51.210;7.656;2023-03-01T04:50:12;17.20;;;11.82;;
44925;SDS011;30662;51.210;7.656;2023-03-01T04:52:39;16.40;;;11.68;;
44925;SDS011;30662;51.210;7.656;2023-03-01T04:55:06;16.33;;;12.80;;
44925;SDS011;30662;51.210;7.656;2023-03-01T04:57:32;15.35;;;12.23;;
44925;SDS011;30662;51.210;7.656;2023-03-01T04:59:58;12.85;;;11.07;;
44925;SDS011;30662;51.210;7.656;2023-03-01T05:02:24;15.55;;;12.48;;
44925;SDS011;30662;51.210;7.656;2023-03-01T05:04:50;14.15;;;11.65;;
44925;SDS011;30662;51.210;7.656;2023-03-01T05:07:16;16.73;;;12.38;;
44925;SDS011;30662;51.210;7.656;2023-03-01T05:09:47;18.80;;;13.43;;
44925;SDS011;30662;51.210;7.656;2023-03-01T05:12:14;14.65;;;12.57;;
44925;SDS011;30662;51.210;7.656;2023-03-01T05:14:40;14.88;;;11.90;;
44925;SDS011;30662;51.210;7.656;2023-03-01T05:17:07;17.85;;;13.35;;
44925;SDS011;30662;51.210;7.656;2023-03-01T05:19:33;16.33;;;11.55;;
44925;SDS011;30662;51.210;7.656;2023-03-01T05:21:59;16.35;;;12.60;;
44925;SDS011;30662;51.210;7.656;2023-03-01T05:24:32;17.48;;;12.27;;
44925;SDS011;30662;51.210;7.656;2023-03-01T05:26:59;17.52;;;12.43;;
44925;SDS011;30662;51.210;7.656;2023-03-01T05:29:26;18.05;;;12.90;;
44925;SDS011;30662;51.210;7.656;2023-03-01T05:31:55;19.13;;;12.65;;
44925;SDS011;30662;51.210;7.656;2023-03-01T05:34:26;15.40;;;12.45;;
44925;SDS011;30662;51.210;7.656;2023-03-01T05:36:57;15.43;;;12.05;;
44925;SDS011;30662;51.210;7.656;2023-03-01T05:39:25;14.70;;;12.07;;
44925;SDS011;30662;51.210;7.656;2023-03-01T05:41:55;19.25;;;13.80;;
44925;SDS011;30662;51.210;7.656;2023-03-01T05:44:23;17.95;;;12.73;;
44925;SDS011;30662;51.210;7.656;2023-03-01T05:46:49;16.67;;;13.15;;
44925;SDS011;30662;51.210;7.656;2023-03-01T05:49:15;20.73;;;13.30;;
44925;SDS011;30662;51.210;7.656;2023-03-01T05:51:42;16.10;;;12.18;;
44925;SDS011;30662;51.210;7.656;2023-03-01T05:54:12;16.13;;;12.57;;
44925;SDS011;30662;51.210;7.656;2023-03-01T05:56:38;16.55;;;12.02;;
44925;SDS011;30662;51.210;7.656;2023-03-01T05:59:04;15.82;;;12.57;;
44925;SDS011;30662;51.210;7.656;2023-03-01T06:01:33;18.00;;;13.07;;
44925;SDS011;30662;51.210;7.656;2023-03-01T06:04:01;17.27;;;12.93;;
44925;SDS011;30662;51.210;7.656;2023-03-01T06:06:27;17.88;;;13.95;;
44925;SDS011;30662;51.210;7.656;2023-03-01T06:08:54;14.68;;;12.35;;
44925;SDS011;30662;51.210;7.656;2023-03-01T06:11:21;16.30;;;12.95;;
44925;SDS011;30662;51.210;7.656;2023-03-01T06:13:47;18.40;;;13.18;;
44925;SDS011;30662;51.210;7.656;2023-03-01T06:16:13;18.33;;;13.80;;
44925;SDS011;30662;51.210;7.656;2023-03-01T06:18:39;18.55;;;13.82;;
44925;SDS011;30662;51.210;7.656;2023-03-01T06:21:06;17.08;;;14.05;;
44925;SDS011;30662;51.210;7.656;2023-03-01T06:23:33;18.33;;;13.75;;
44925;SDS011;30662;51.210;7.656;2023-03-01T06:26:00;18.08;;;13.73;;
44925;SDS011;30662;51.210;7.656;2023-03-01T06:28:26;22.40;;;14.60;;
44925;SDS011;30662;51.210;7.656;2023-03-01T06:30:51;17.77;;;13.73;;
44925;SDS011;30662;51.210;7.656;2023-03-01T06:33:18;18.23;;;14.35;;
44925;SDS011;30662;51.210;7.656;2023-03-01T06:35:49;18.05;;;15.05;;
44925;SDS011;30662;51.210;7.656;2023-03-01T06:38:16;22.90;;;14.93;;
44925;SDS011;30662;51.210;7.656;2023-03-01T06:40:44;18.17;;;14.07;;
44925;SDS011;30662;51.210;7.656;2023-03-01T06:43:10;17.63;;;13.40;;
44925;SDS011;30662;51.210;7.656;2023-03-01T06:45:37;19.48;;;14.40;;
44925;SDS011;30662;51.210;7.656;2023-03-01T06:48:03;16.63;;;12.75;;
44925;SDS011;30662;51.210;7.656;2023-03-01T06:50:30;17.52;;;13.98;;
44925;SDS011;30662;51.210;7.656;2023-03-01T06:52:57;21.27;;;13.50;;
44925;SDS011;30662;51.210;7.656;2023-03-01T06:55:23;16.00;;;12.90;;
44925;SDS011;30662;51.210;7.656;2023-03-01T06:57:53;17.75;;;14.00;;
44925;SDS011;30662;51.210;7.656;2023-03-01T07:00:21;21.20;;;13.00;;
44925;SDS011;30662;51.210;7.656;2023-03-01T07:02:47;20.77;;;13.40;;
44925;SDS011;30662;51.210;7.656;2023-03-01T07:05:13;21.38;;;15.15;;
44925;SDS011;30662;51.210;7.656;2023-03-01T07:07:38;16.95;;;12.77;;
44925;SDS011;30662;51.210;7.656;2023-03-01T07:10:04;17.77;;;13.88;;
44925;SDS011;30662;51.210;7.656;2023-03-01T07:12:31;15.73;;;13.20;;
44925;SDS011;30662;51.210;7.656;2023-03-01T07:14:57;18.25;;;13.07;;
44925;SDS011;30662;51.210;7.656;2023-03-01T07:17:23;16.40;;;13.68;;
44925;SDS011;30662;51.210;7.656;2023-03-01T07:19:49;19.90;;;13.65;;
44925;SDS011;30662;51.210;7.656;2023-03-01T07:22:15;16.63;;;13.60;;
44925;SDS011;30662;51.210;7.656;2023-03-01T07:24:42;20.63;;;14.32;;
44925;SDS011;30662;51.210;7.656;2023-03-01T07:27:08;18.50;;;14.48;;
44925;SDS011;30662;51.210;7.656;2023-03-01T07:29:34;18.60;;;14.40;;
44925;SDS011;30662;51.210;7.656;2023-03-01T07:32:02;16.27;;;13.32;;
44925;SDS011;30662;51.210;7.656;2023-03-01T07:34:29;18.70;;;13.70;;
44925;SDS011;30662;51.210;7.656;2023-03-01T07:36:55;21.60;;;14.63;;
44925;SDS011;30662;51.210;7.656;2023-03-01T07:39:21;20.40;;;14.00;;
44925;SDS011;30662;51.210;7.656;2023-03-01T07:41:48;18.45;;;14.68;;
44925;SDS011;30662;51.210;7.656;2023-03-01T07:44:15;17.65;;;13.43;;
44925;SDS011;30662;51.210;7.656;2023-03-01T07:46:42;16.60;;;12.90;;
44925;SDS011;30662;51.210;7.656;2023-03-01T07:49:09;17.27;;;13.38;;
44925;SDS011;30662;51.210;7.656;2023-03-01T07:51:35;17.30;;;13.75;;
44925;SDS011;30662;51.210;7.656;2023-03-01T07:54:01;17.58;;;13.25;;
44925;SDS011;30662;51.210;7.656;2023-03-01T07:56:27;17.13;;;13.50;;
44925;SDS011;30662;51.210;7.656;2023-03-01T07:58:53;20.15;;;14.65;;
44925;SDS011;30662;51.210;7.656;2023-03-01T08:01:19;19.25;;;13.25;;
44925;SDS011;30662;51.210;7.656;2023-03-01T08:03:47;17.33;;;12.88;;
44925;SDS011;30662;51.210;7.656;2023-03-01T08:06:14;15.45;;;12.13;;
44925;SDS011;30662;51.210;7.656;2023-03-01T08:08:41;22.95;;;13.60;;
44925;SDS011;30662;51.210;7.656;2023-03-01T08:11:09;17.88;;;12.75;;
44925;SDS011;30662;51.210;7.656;2023-03-01T08:13:36;16.73;;;12.30;;
44925;SDS011;30662;51.210;7.656;2023-03-01T08:16:10;17.63;;;13.32;;
44925;SDS011;30662;51.210;7.656;2023-03-01T08:23:33;21.42;;;12.57;;
44925;SDS011;30662;51.210;7.656;2023-03-01T08:26:03;16.02;;;12.98;;
44925;SDS011;30662;51.210;7.656;2023-03-01T08:28:37;17.35;;;12.80;;
44925;SDS011;30662;51.210;7.656;2023-03-01T08:31:13;17.80;;;12.90;;
44925;SDS011;30662;51.210;7.656;2023-03-01T08:33:44;20.88;;;13.00;;
44925;SDS011;30662;51.210;7.656;2023-03-01T08:36:16;15.02;;;12.07;;
44925;SDS011;30662;51.210;7.656;2023-03-01T08:38:42;15.50;;;12.23;;
44925;SDS011;30662;51.210;7.656;2023-03-01T08:41:09;15.90;;;13.00;;
44925;SDS011;30662;51.210;7.656;2023-03-01T08:43:35;15.98;;;12.35;;
44925;SDS011;30662;51.210;7.656;2023-03-01T08:46:00;18.00;;;12.77;;
44925;SDS011;30662;51.210;7.656;2023-03-01T08:48:27;16.60;;;12.10;;
44925;SDS011;30662;51.210;7.656;2023-03-01T08:50:54;14.65;;;12.45;;
44925;SDS011;30662;51.210;7.656;2023-03-01T08:53:22;14.98;;;11.35;;
44925;SDS011;30662;51.210;7.656;2023-03-01T08:55:48;16.65;;;12.55;;
44925;SDS011;30662;51.210;7.656;2023-03-01T08:58:15;17.55;;;12.90;;
44925;SDS011;30662;51.210;7.656;2023-03-01T09:00:41;19.98;;;12.20;;
44925;SDS011;30662;51.210;7.656;2023-03-01T09:03:07;15.88;;;12.05;;
44925;SDS011;30662;51.210;7.656;2023-03-01T09:05:33;16.08;;;11.48;;
44925;SDS011;30662;51.210;7.656;2023-03-01T09:07:59;16.38;;;12.73;;
44925;SDS011;30662;51.210;7.656;2023-03-01T09:10:25;16.95;;;12.15;;
44925;SDS011;30662;51.210;7.656;2023-03-01T09:12:51;15.88;;;11.75;;
44925;SDS011;30662;51.210;7.656;2023-03-01T09:15:17;16.05;;;11.65;;
44925;SDS011;30662;51.210;7.656;2023-03-01T09:17:43;18.65;;;11.68;;
44925;SDS011;30662;51.210;7.656;2023-03-01T09:20:09;15.57;;;11.98;;
44925;SDS011;30662;51.210;7.656;2023-03-01T09:22:35;16.52;;;11.27;;
44925;SDS011;30662;51.210;7.656;2023-03-01T09:25:01;17.05;;;11.88;;
44925;SDS011;30662;51.210;7.656;2023-03-01T09:27:27;18.25;;;12.35;;
44925;SDS011;30662;51.210;7.656;2023-03-01T09:29:53;13.88;;;10.60;;
44925;SDS011;30662;51.210;7.656;2023-03-01T09:32:21;13.52;;;10.10;;
44925;SDS011;30662;51.210;7.656;2023-03-01T09:34:47;14.40;;;11.30;;
44925;SDS011;30662;51.210;7.656;2023-03-01T09:37:32;17.40;;;12.00;;
44925;SDS011;30662;51.210;7.656;2023-03-01T09:39:59;17.80;;;12.23;;
44925;SDS011;30662;51.210;7.656;2023-03-01T09:42:25;15.85;;;11.65;;
44925;SDS011;30662;51.210;7.656;2023-03-01T09:47:29;14.60;;;10.88;;
44925;SDS011;30662;51.210;7.656;2023-03-01T09:50:06;17.38;;;11.27;;
44925;SDS011;30662;51.210;7.656;2023-03-01T09:55:10;13.20;;;10.35;;
44925;SDS011;30662;51.210;7.656;2023-03-01T09:57:54;16.60;;;10.80;;
44925;SDS011;30662;51.210;7.656;2023-03-01T10:00:39;12.93;;;10.32;;
44925;SDS011;30662;51.210;7.656;2023-03-01T10:03:32;13.10;;;9.57;;
44925;SDS011;30662;51.210;7.656;2023-03-01T10:06:08;16.58;;;10.75;;
44925;SDS011;30662;51.210;7.656;2023-03-01T10:08:49;13.25;;;10.07;;
44925;SDS011;30662;51.210;7.656;2023-03-01T10:11:24;14.00;;;8.93;;
44925;SDS011;30662;51.210;7.656;2023-03-01T10:13:59;16.33;;;10.13;;
44925;SDS011;30662;51.210;7.656;2023-03-01T10:19:00;14.32;;;8.88;;
44925;SDS011;30662;51.210;7.656;2023-03-01T10:21:29;10.02;;;8.10;;
44925;SDS011;30662;51.210;7.656;2023-03-01T10:24:08;11.50;;;8.82;;
44925;SDS011;30662;51.210;7.656;2023-03-01T10:26:48;12.77;;;9.43;;
44925;SDS011;30662;51.210;7.656;2023-03-01T10:29:14;11.07;;;8.32;;
44925;SDS011;30662;51.210;7.656;2023-03-01T10:31:50;10.68;;;8.07;;
44925;SDS011;30662;51.210;7.656;2023-03-01T10:34:20;10.70;;;8.00;;
44925;SDS011;30662;51.210;7.656;2023-03-01T10:36:58;10.82;;;8.15;;
44925;SDS011;30662;51.210;7.656;2023-03-01T10:39:34;11.25;;;7.82;;
44925;SDS011;30662;51.210;7.656;2023-03-01T10:42:02;9.95;;;7.60;;
44925;SDS011;30662;51.210;7.656;2023-03-01T10:44:51;9.30;;;7.85;;
44925;SDS011;30662;51.210;7.656;2023-03-01T10:47:23;9.70;;;7.50;;
44925;SDS011;30662;51.210;7.656;2023-03-01T10:49:52;10.15;;;7.22;;
44925;SDS011;30662;51.210;7.656;2023-03-01T10:52:40;10.10;;;7.70;;
44925;SDS011;30662;51.210;7.656;2023-03-01T10:57:42;11.82;;;7.90;;
44925;SDS011;30662;51.210;7.656;2023-03-01T11:00:16;10.32;;;7.47;;
44925;SDS011;30662;51.210;7.656;2023-03-01T11:02:48;8.70;;;6.50;;
44925;SDS011;30662;51.210;7.656;2023-03-01T11:05:28;9.18;;;7.00;;
44925;SDS011;30662;51.210;7.656;2023-03-01T11:07:56;7.95;;;6.90;;
44925;SDS011;30662;51.210;7.656;2023-03-01T11:10:33;10.43;;;6.40;;
44925;SDS011;30662;51.210;7.656;2023-03-01T11:13:14;7.90;;;6.15;;
44925;SDS011;30662;51.210;7.656;2023-03-01T11:15:43;8.20;;;6.65;;
44925;SDS011;30662;51.210;7.656;2023-03-01T11:18:31;6.90;;;6.07;;
44925;SDS011;30662;51.210;7.656;2023-03-01T11:21:13;7.10;;;5.50;;
44925;SDS011;30662;51.210;7.656;2023-03-01T11:23:40;8.98;;;6.10;;
44925;SDS011;30662;51.210;7.656;2023-03-01T11:26:12;7.57;;;6.00;;
44925;SDS011;30662;51.210;7.656;2023-03-01T11:28:39;6.88;;;5.65;;
44925;SDS011;30662;51.210;7.656;2023-03-01T11:31:08;8.80;;;6.05;;
44925;SDS011;30662;51.210;7.656;2023-03-01T11:36:24;7.38;;;5.85;;
44925;SDS011;30662;51.210;7.656;2023-03-01T11:38:53;6.82;;;5.65;;
44925;SDS011;30662;51.210;7.656;2023-03-01T11:41:21;6.85;;;5.38;;
44925;SDS011;30662;51.210;7.656;2023-03-01T11:43:52;7.78;;;5.57;;
44925;SDS011;30662;51.210;7.656;2023-03-01T11:57:11;5.15;;;4.47;;
44925;SDS011;30662;51.210;7.656;2023-03-01T12:08:04;7.35;;;5.70;;
44925;SDS011;30662;51.210;7.656;2023-03-01T12:10:52;8.23;;;5.35;;
44925;SDS011;30662;51.210;7.656;2023-03-01T12:19:14;7.93;;;5.20;;
44925;SDS011;30662;51.210;7.656;2023-03-01T12:22:01;5.50;;;4.47;;
44925;SDS011;30662;51.210;7.656;2023-03-01T12:32:40;5.78;;;4.38;;
44925;SDS011;30662;51.210;7.656;2023-03-01T12:38:08;6.20;;;4.63;;
44925;SDS011;30662;51.210;7.656;2023-03-01T12:41:01;7.32;;;4.40;;
44925;SDS011;30662;51.210;7.656;2023-03-01T12:49:27;6.78;;;4.10;;
44925;SDS011;30662;51.210;7.656;2023-03-01T12:52:02;5.07;;;4.22;;
44925;SDS011;30662;51.210;7.656;2023-03-01T12:54:30;5.18;;;3.85;;
44925;SDS011;30662;51.210;7.656;2023-03-01T13:03:00;4.57;;;4.00;;
44925;SDS011;30662;51.210;7.656;2023-03-01T13:08:39;4.70;;;3.53;;
44925;SDS011;30662;51.210;7.656;2023-03-01T13:11:20;5.32;;;4.00;;
44925;SDS011;30662;51.210;7.656;2023-03-01T13:19:06;7.28;;;4.80;;
44925;SDS011;30662;51.210;7.656;2023-03-01T13:21:43;4.88;;;4.00;;
44925;SDS011;30662;51.210;7.656;2023-03-01T13:29:53;26.17;;;4.68;;
44925;SDS011;30662;51.210;7.656;2023-03-01T13:32:35;4.60;;;3.63;;
44925;SDS011;30662;51.210;7.656;2023-03-01T13:38:02;7.13;;;4.45;;
44925;SDS011;30662;51.210;7.656;2023-03-01T13:41:00;5.10;;;4.40;;
44925;SDS011;30662;51.210;7.656;2023-03-01T13:43:27;7.32;;;4.25;;
44925;SDS011;30662;51.210;7.656;2023-03-01T13:45:56;5.20;;;4.50;;
44925;SDS011;30662;51.210;7.656;2023-03-01T13:48:24;7.40;;;4.70;;
44925;SDS011;30662;51.210;7.656;2023-03-01T13:50:57;7.55;;;5.13;;
44925;SDS011;30662;51.210;7.656;2023-03-01T13:53:26;11.57;;;6.78;;
44925;SDS011;30662;51.210;7.656;2023-03-01T13:55:59;8.18;;;5.45;;
44925;SDS011;30662;51.210;7.656;2023-03-01T13:58:29;6.50;;;5.03;;
44925;SDS011;30662;51.210;7.656;2023-03-01T14:03:23;9.60;;;5.38;;
44925;SDS011;30662;51.210;7.656;2023-03-01T14:08:41;7.70;;;5.50;;
44925;SDS011;30662;51.210;7.656;2023-03-01T14:19:41;6.65;;;5.78;;
44925;SDS011;30662;51.210;7.656;2023-03-01T14:22:24;8.05;;;5.43;;
44925;SDS011;30662;51.210;7.656;2023-03-01T14:27:26;9.20;;;6.90;;
44925;SDS011;30662;51.210;7.656;2023-03-01T14:30:00;9.73;;;5.78;;
44925;SDS011;30662;51.210;7.656;2023-03-01T14:32:30;13.38;;;5.88;;
44925;SDS011;30662;51.210;7.656;2023-03-01T14:34:58;7.60;;;5.82;;
44925;SDS011;30662;51.210;7.656;2023-03-01T14:37:26;15.77;;;5.82;;
44925;SDS011;30662;51.210;7.656;2023-03-01T14:39:55;8.27;;;5.90;;
44925;SDS011;30662;51.210;7.656;2023-03-01T14:42:23;6.85;;;5.80;;
44925;SDS011;30662;51.210;7.656;2023-03-01T14:44:53;8.82;;;6.38;;
44925;SDS011;30662;51.210;7.656;2023-03-01T14:47:25;11.02;;;6.43;;
44925;SDS011;30662;51.210;7.656;2023-03-01T14:49:57;10.57;;;6.65;;
44925;SDS011;30662;51.210;7.656;2023-03-01T14:53:02;8.13;;;5.90;;
44925;SDS011;30662;51.210;7.656;2023-03-01T14:55:38;10.95;;;6.35;;
44925;SDS011;30662;51.210;7.656;2023-03-01T14:58:14;8.63;;;6.22;;
44925;SDS011;30662;51.210;7.656;2023-03-01T15:00:48;10.55;;;7.20;;
44925;SDS011;30662;51.210;7.656;2023-03-01T15:03:20;7.65;;;5.80;;
44925;SDS011;30662;51.210;7.656;2023-03-01T15:05:55;10.20;;;7.30;;
44925;SDS011;30662;51.210;7.656;2023-03-01T15:08:23;8.88;;;5.75;;
44925;SDS011;30662;51.210;7.656;2023-03-01T15:10:59;8.18;;;6.28;;
44925;SDS011;30662;51.210;7.656;2023-03-01T15:13:26;7.63;;;6.35;;
44925;SDS011;30662;51.210;7.656;2023-03-01T15:16:03;9.30;;;6.57;;
44925;SDS011;30662;51.210;7.656;2023-03-01T15:18:34;8.70;;;6.80;;
44925;SDS011;30662;51.210;7.656;2023-03-01T15:21:36;9.07;;;6.25;;
44925;SDS011;30662;51.210;7.656;2023-03-01T15:24:06;11.38;;;6.40;;
44925;SDS011;30662;51.210;7.656;2023-03-01T15:26:51;8.48;;;6.38;;
44925;SDS011;30662;51.210;7.656;2023-03-01T15:29:24;10.45;;;6.47;;
44925;SDS011;30662;51.210;7.656;2023-03-01T15:34:24;8.48;;;5.90;;
44925;SDS011;30662;51.210;7.656;2023-03-01T15:36:58;10.63;;;6.70;;
44925;SDS011;30662;51.210;7.656;2023-03-01T15:42:46;7.70;;;5.72;;
44925;SDS011;30662;51.210;7.656;2023-03-01T15:45:20;10.32;;;5.90;;
44925;SDS011;30662;51.210;7.656;2023-03-01T15:47:52;6.10;;;4.13;;
44925;SDS011;30662;51.210;7.656;2023-03-01T15:50:25;8.50;;;5.63;;
44925;SDS011;30662;51.210;7.656;2023-03-01T15:52:55;9.88;;;5.97;;
44925;SDS011;30662;51.210;7.656;2023-03-01T15:55:27;8.43;;;5.70;;
44925;SDS011;30662;51.210;7.656;2023-03-01T16:00:41;10.50;;;5.43;;
44925;SDS011;30662;51.210;7.656;2023-03-01T16:03:25;10.80;;;6.55;;
44925;SDS011;30662;51.210;7.656;2023-03-01T16:05:51;9.80;;;6.72;;
44925;SDS011;30662;51.210;7.656;2023-03-01T16:08:20;9.50;;;6.97;;
44925;SDS011;30662;51.210;7.656;2023-03-01T16:10:46;9.00;;;5.85;;
44925;SDS011;30662;51.210;7.656;2023-03-01T16:13:14;8.85;;;6.68;;
44925;SDS011;30662;51.210;7.656;2023-03-01T16:15:40;13.45;;;8.68;;
44925;SDS011;30662;51.210;7.656;2023-03-01T16:18:06;9.23;;;6.28;;
44925;SDS011;30662;51.210;7.656;2023-03-01T16:20:35;8.85;;;6.43;;
44925;SDS011;30662;51.210;7.656;2023-03-01T16:23:02;8.45;;;5.18;;
44925;SDS011;30662;51.210;7.656;2023-03-01T16:25:31;8.57;;;6.40;;
44925;SDS011;30662;51.210;7.656;2023-03-01T16:27:58;9.77;;;6.03;;
44925;SDS011;30662;51.210;7.656;2023-03-01T16:30:26;10.45;;;6.82;;
44925;SDS011;30662;51.210;7.656;2023-03-01T16:32:52;7.20;;;5.88;;
44925;SDS011;30662;51.210;7.656;2023-03-01T16:35:19;9.45;;;6.72;;
44925;SDS011;30662;51.210;7.656;2023-03-01T16:37:46;8.52;;;5.63;;
44925;SDS011;30662;51.210;7.656;2023-03-01T16:40:17;8.63;;;6.10;;
44925;SDS011;30662;51.210;7.656;2023-03-01T16:42:46;9.35;;;6.18;;
44925;SDS011;30662;51.210;7.656;2023-03-01T16:45:15;9.55;;;6.47;;